sensor_id;sensor_type;location;lat;lon;timestamp;temperature;humidity
75705;DHT22;65807;44.726;37.764;2022-12-07T00:00:18;18.37;48.57
75705;DHT22;65807;44.726;37.764;2022-12-07T00:01:23;18.36;48.60
75705;DHT22;65807;44.726;37.764;2022-12-07T00:02:24;18.36;48.59
75705;DHT22;65807;44.726;37.764;2022-12-07T00:03:26;18.36;48.57
75705;DHT22;65807;44.726;37.764;2022-12-07T00:04:27;18.37;48.57
75705;DHT22;65807;44.726;37.764;2022-12-07T00:05:29;18.36;48.60
75705;DHT22;65807;44.726;37.764;2022-12-07T00:06:34;18.35;48.58
75705;DHT22;65807;44.726;37.764;2022-12-07T00:07:35;18.36;48.57
75705;DHT22;65807;44.726;37.764;2022-12-07T00:08:37;18.36;48.61
75705;DHT22;65807;44.726;37.764;2022-12-07T00:09:38;18.35;48.62
75705;DHT22;65807;44.726;37.764;2022-12-07T00:10:40;18.36;48.59
75705;DHT22;65807;44.726;37.764;2022-12-07T00:11:41;18.36;48.61
75705;DHT22;65807;44.726;37.764;2022-12-07T00:12:43;18.36;48.60
75705;DHT22;65807;44.726;37.764;2022-12-07T00:13:44;18.36;48.64
75705;DHT22;65807;44.726;37.764;2022-12-07T00:14:46;18.36;48.62
75705;DHT22;65807;44.726;37.764;2022-12-07T00:15:50;18.35;48.62
75705;DHT22;65807;44.726;37.764;2022-12-07T00:16:55;18.36;48.63
75705;DHT22;65807;44.726;37.764;2022-12-07T00:17:58;18.36;48.63
75705;DHT22;65807;44.726;37.764;2022-12-07T00:19:13;18.35;48.63
75705;DHT22;65807;44.726;37.764;2022-12-07T00:20:17;18.35;48.62
75705;DHT22;65807;44.726;37.764;2022-12-07T00:21:26;18.35;48.64
75705;DHT22;65807;44.726;37.764;2022-12-07T00:22:31;18.36;48.64
75705;DHT22;65807;44.726;37.764;2022-12-07T00:23:39;18.37;48.67
75705;DHT22;65807;44.726;37.764;2022-12-07T00:24:55;18.36;48.65
75705;DHT22;65807;44.726;37.764;2022-12-07T00:26:07;18.36;48.66
75705;DHT22;65807;44.726;37.764;2022-12-07T00:27:23;18.36;48.66
75705;DHT22;65807;44.726;37.764;2022-12-07T00:28:48;18.35;48.71
75705;DHT22;65807;44.726;37.764;2022-12-07T00:29:57;18.35;48.70
75705;DHT22;65807;44.726;37.764;2022-12-07T00:31:06;18.36;48.73
75705;DHT22;65807;44.726;37.764;2022-12-07T00:32:07;18.36;48.71
75705;DHT22;65807;44.726;37.764;2022-12-07T00:33:09;18.36;48.70
75705;DHT22;65807;44.726;37.764;2022-12-07T00:34:14;18.37;48.71
75705;DHT22;65807;44.726;37.764;2022-12-07T00:35:16;18.36;48.67
75705;DHT22;65807;44.726;37.764;2022-12-07T00:36:18;18.36;48.70
75705;DHT22;65807;44.726;37.764;2022-12-07T00:37:20;18.34;48.68
75705;DHT22;65807;44.726;37.764;2022-12-07T00:38:22;18.36;48.73
75705;DHT22;65807;44.726;37.764;2022-12-07T00:39:23;18.36;48.75
75705;DHT22;65807;44.726;37.764;2022-12-07T00:40:24;18.35;48.74
75705;DHT22;65807;44.726;37.764;2022-12-07T00:41:26;18.35;48.75
75705;DHT22;65807;44.726;37.764;2022-12-07T00:42:28;18.36;48.73
75705;DHT22;65807;44.726;37.764;2022-12-07T00:43:30;18.35;48.72
75705;DHT22;65807;44.726;37.764;2022-12-07T00:44:31;18.36;48.74
75705;DHT22;65807;44.726;37.764;2022-12-07T00:45:33;18.35;48.72
75705;DHT22;65807;44.726;37.764;2022-12-07T00:46:34;18.35;48.70
75705;DHT22;65807;44.726;37.764;2022-12-07T00:47:36;18.36;48.71
75705;DHT22;65807;44.726;37.764;2022-12-07T00:48:37;18.35;48.73
75705;DHT22;65807;44.726;37.764;2022-12-07T00:49:38;18.35;48.76
75705;DHT22;65807;44.726;37.764;2022-12-07T00:50:40;18.35;48.73
75705;DHT22;65807;44.726;37.764;2022-12-07T00:51:41;18.34;48.76
75705;DHT22;65807;44.726;37.764;2022-12-07T00:52:43;18.35;48.75
75705;DHT22;65807;44.726;37.764;2022-12-07T00:53:47;18.35;48.73
75705;DHT22;65807;44.726;37.764;2022-12-07T00:54:52;18.35;48.76
75705;DHT22;65807;44.726;37.764;2022-12-07T00:55:53;18.35;48.75
75705;DHT22;65807;44.726;37.764;2022-12-07T00:56:56;18.34;48.73
75705;DHT22;65807;44.726;37.764;2022-12-07T00:57:58;18.34;48.76
75705;DHT22;65807;44.726;37.764;2022-12-07T00:59:00;18.34;48.74
75705;DHT22;65807;44.726;37.764;2022-12-07T01:00:02;18.35;48.73
75705;DHT22;65807;44.726;37.764;2022-12-07T01:01:04;18.34;48.75
75705;DHT22;65807;44.726;37.764;2022-12-07T01:02:06;18.35;48.76
75705;DHT22;65807;44.726;37.764;2022-12-07T01:03:08;18.34;48.76
75705;DHT22;65807;44.726;37.764;2022-12-07T01:04:10;18.34;48.78
75705;DHT22;65807;44.726;37.764;2022-12-07T01:05:11;18.34;48.76
75705;DHT22;65807;44.726;37.764;2022-12-07T01:06:16;18.35;48.79
75705;DHT22;65807;44.726;37.764;2022-12-07T01:07:18;18.34;48.77
75705;DHT22;65807;44.726;37.764;2022-12-07T01:08:20;18.35;48.76
75705;DHT22;65807;44.726;37.764;2022-12-07T01:09:21;18.34;48.77
75705;DHT22;65807;44.726;37.764;2022-12-07T01:10:23;18.35;48.76
75705;DHT22;65807;44.726;37.764;2022-12-07T01:11:25;18.35;48.76
75705;DHT22;65807;44.726;37.764;2022-12-07T01:12:27;18.35;48.77
75705;DHT22;65807;44.726;37.764;2022-12-07T01:13:28;18.35;48.77
75705;DHT22;65807;44.726;37.764;2022-12-07T01:14:30;18.36;48.79
75705;DHT22;65807;44.726;37.764;2022-12-07T01:15:31;18.34;48.77
75705;DHT22;65807;44.726;37.764;2022-12-07T01:16:33;18.34;48.79
75705;DHT22;65807;44.726;37.764;2022-12-07T01:17:34;18.35;48.79
75705;DHT22;65807;44.726;37.764;2022-12-07T01:18:36;18.34;48.78
75705;DHT22;65807;44.726;37.764;2022-12-07T01:19:37;18.35;48.79
75705;DHT22;65807;44.726;37.764;2022-12-07T01:20:39;18.33;48.81
75705;DHT22;65807;44.726;37.764;2022-12-07T01:21:40;18.35;48.79
75705;DHT22;65807;44.726;37.764;2022-12-07T01:22:42;18.34;48.82
75705;DHT22;65807;44.726;37.764;2022-12-07T01:23:44;18.35;48.80
75705;DHT22;65807;44.726;37.764;2022-12-07T01:24:45;18.34;48.80
75705;DHT22;65807;44.726;37.764;2022-12-07T01:25:53;18.34;48.80
75705;DHT22;65807;44.726;37.764;2022-12-07T01:26:54;18.35;48.81
75705;DHT22;65807;44.726;37.764;2022-12-07T01:27:56;18.34;48.81
75705;DHT22;65807;44.726;37.764;2022-12-07T01:28:57;18.34;48.81
75705;DHT22;65807;44.726;37.764;2022-12-07T01:30:00;18.34;48.80
75705;DHT22;65807;44.726;37.764;2022-12-07T01:31:08;18.35;48.83
75705;DHT22;65807;44.726;37.764;2022-12-07T01:32:12;18.34;48.82
75705;DHT22;65807;44.726;37.764;2022-12-07T01:33:13;18.34;48.82
75705;DHT22;65807;44.726;37.764;2022-12-07T01:34:15;18.34;48.83
75705;DHT22;65807;44.726;37.764;2022-12-07T01:35:16;18.34;48.86
75705;DHT22;65807;44.726;37.764;2022-12-07T01:36:19;18.33;48.84
75705;DHT22;65807;44.726;37.764;2022-12-07T01:37:20;18.35;48.85
75705;DHT22;65807;44.726;37.764;2022-12-07T01:38:22;18.34;48.83
75705;DHT22;65807;44.726;37.764;2022-12-07T01:39:24;18.35;48.86
75705;DHT22;65807;44.726;37.764;2022-12-07T01:40:25;18.34;48.86
75705;DHT22;65807;44.726;37.764;2022-12-07T01:41:28;18.33;48.85
75705;DHT22;65807;44.726;37.764;2022-12-07T01:42:30;18.34;48.86
75705;DHT22;65807;44.726;37.764;2022-12-07T01:43:32;18.34;48.85
75705;DHT22;65807;44.726;37.764;2022-12-07T01:45:14;18.34;48.85
75705;DHT22;65807;44.726;37.764;2022-12-07T01:45:55;18.34;48.89
75705;DHT22;65807;44.726;37.764;2022-12-07T01:46:57;18.34;48.89
75705;DHT22;65807;44.726;37.764;2022-12-07T01:47:59;18.34;48.89
75705;DHT22;65807;44.726;37.764;2022-12-07T01:49:00;18.34;48.87
75705;DHT22;65807;44.726;37.764;2022-12-07T01:50:02;18.33;48.88
75705;DHT22;65807;44.726;37.764;2022-12-07T01:51:05;18.33;48.88
75705;DHT22;65807;44.726;37.764;2022-12-07T01:52:16;18.34;48.88
75705;DHT22;65807;44.726;37.764;2022-12-07T01:53:18;18.33;48.86
75705;DHT22;65807;44.726;37.764;2022-12-07T01:54:20;18.33;48.89
75705;DHT22;65807;44.726;37.764;2022-12-07T01:55:22;18.33;48.87
75705;DHT22;65807;44.726;37.764;2022-12-07T01:56:25;18.34;48.86
75705;DHT22;65807;44.726;37.764;2022-12-07T01:57:28;18.34;48.86
75705;DHT22;65807;44.726;37.764;2022-12-07T01:58:30;18.34;48.88
75705;DHT22;65807;44.726;37.764;2022-12-07T01:59:31;18.34;48.88
75705;DHT22;65807;44.726;37.764;2022-12-07T02:00:33;18.33;48.87
75705;DHT22;65807;44.726;37.764;2022-12-07T02:01:34;18.33;48.88
75705;DHT22;65807;44.726;37.764;2022-12-07T02:04:03;18.34;48.87
75705;DHT22;65807;44.726;37.764;2022-12-07T02:05:05;18.33;48.84
75705;DHT22;65807;44.726;37.764;2022-12-07T02:06:07;18.34;48.87
75705;DHT22;65807;44.726;37.764;2022-12-07T02:07:08;18.35;48.86
75705;DHT22;65807;44.726;37.764;2022-12-07T02:08:10;18.34;48.87
75705;DHT22;65807;44.726;37.764;2022-12-07T02:09:12;18.34;48.89
75705;DHT22;65807;44.726;37.764;2022-12-07T02:10:21;18.35;48.88
75705;DHT22;65807;44.726;37.764;2022-12-07T02:11:22;18.35;48.85
75705;DHT22;65807;44.726;37.764;2022-12-07T02:12:24;18.34;48.85
75705;DHT22;65807;44.726;37.764;2022-12-07T02:13:26;18.34;48.87
75705;DHT22;65807;44.726;37.764;2022-12-07T02:14:28;18.34;48.89
75705;DHT22;65807;44.726;37.764;2022-12-07T02:15:39;18.35;48.90
75705;DHT22;65807;44.726;37.764;2022-12-07T02:17:53;18.33;48.89
75705;DHT22;65807;44.726;37.764;2022-12-07T02:21:15;18.34;48.94
75705;DHT22;65807;44.726;37.764;2022-12-07T02:28:34;18.34;48.95
75705;DHT22;65807;44.726;37.764;2022-12-07T02:30:57;18.34;49.01
75705;DHT22;65807;44.726;37.764;2022-12-07T02:32:03;18.34;48.99
75705;DHT22;65807;44.726;37.764;2022-12-07T02:33:11;18.34;48.96
75705;DHT22;65807;44.726;37.764;2022-12-07T02:34:37;18.33;48.99
75705;DHT22;65807;44.726;37.764;2022-12-07T02:35:43;18.34;49.00
75705;DHT22;65807;44.726;37.764;2022-12-07T02:36:46;18.34;48.98
75705;DHT22;65807;44.726;37.764;2022-12-07T02:39:15;18.34;49.03
75705;DHT22;65807;44.726;37.764;2022-12-07T02:40:21;18.33;48.99
75705;DHT22;65807;44.726;37.764;2022-12-07T02:41:27;18.34;49.02
75705;DHT22;65807;44.726;37.764;2022-12-07T02:42:32;18.33;48.98
75705;DHT22;65807;44.726;37.764;2022-12-07T02:43:39;18.33;49.02
75705;DHT22;65807;44.726;37.764;2022-12-07T02:44:42;18.35;49.01
75705;DHT22;65807;44.726;37.764;2022-12-07T02:45:43;18.33;49.04
75705;DHT22;65807;44.726;37.764;2022-12-07T02:46:53;18.34;49.04
75705;DHT22;65807;44.726;37.764;2022-12-07T02:47:56;18.34;49.05
75705;DHT22;65807;44.726;37.764;2022-12-07T02:48:59;18.33;49.04
75705;DHT22;65807;44.726;37.764;2022-12-07T02:50:05;18.34;49.05
75705;DHT22;65807;44.726;37.764;2022-12-07T02:51:07;18.33;49.05
75705;DHT22;65807;44.726;37.764;2022-12-07T02:52:08;18.34;49.03
75705;DHT22;65807;44.726;37.764;2022-12-07T02:54:30;18.34;49.07
75705;DHT22;65807;44.726;37.764;2022-12-07T02:55:34;18.34;49.10
75705;DHT22;65807;44.726;37.764;2022-12-07T02:57:54;18.34;49.05
75705;DHT22;65807;44.726;37.764;2022-12-07T03:00:22;18.34;49.06
75705;DHT22;65807;44.726;37.764;2022-12-07T03:01:40;18.33;49.09
75705;DHT22;65807;44.726;37.764;2022-12-07T03:06:26;18.35;49.05
75705;DHT22;65807;44.726;37.764;2022-12-07T03:10:33;18.34;49.04
75705;DHT22;65807;44.726;37.764;2022-12-07T03:11:08;18.35;49.05
75705;DHT22;65807;44.726;37.764;2022-12-07T03:12:12;18.35;49.07
75705;DHT22;65807;44.726;37.764;2022-12-07T03:14:39;18.35;49.04
75705;DHT22;65807;44.726;37.764;2022-12-07T03:17:13;18.35;49.05
75705;DHT22;65807;44.726;37.764;2022-12-07T03:18:14;18.35;49.08
75705;DHT22;65807;44.726;37.764;2022-12-07T03:19:18;18.34;49.07
75705;DHT22;65807;44.726;37.764;2022-12-07T03:20:20;18.34;49.06
75705;DHT22;65807;44.726;37.764;2022-12-07T03:21:24;18.34;49.07
75705;DHT22;65807;44.726;37.764;2022-12-07T03:22:28;18.35;49.07
75705;DHT22;65807;44.726;37.764;2022-12-07T03:23:31;18.35;49.08
75705;DHT22;65807;44.726;37.764;2022-12-07T03:24:39;18.34;49.08
75705;DHT22;65807;44.726;37.764;2022-12-07T03:25:44;18.34;49.06
75705;DHT22;65807;44.726;37.764;2022-12-07T03:26:47;18.34;49.08
75705;DHT22;65807;44.726;37.764;2022-12-07T03:27:54;18.34;49.07
75705;DHT22;65807;44.726;37.764;2022-12-07T03:28:58;18.34;49.11
75705;DHT22;65807;44.726;37.764;2022-12-07T03:30:07;18.34;49.10
75705;DHT22;65807;44.726;37.764;2022-12-07T03:32:59;18.34;47.94
75705;DHT22;65807;44.726;37.764;2022-12-07T03:34:17;18.34;47.60
75705;DHT22;65807;44.726;37.764;2022-12-07T03:35:55;18.32;47.57
75705;DHT22;65807;44.726;37.764;2022-12-07T03:36:53;18.28;47.09
75705;DHT22;65807;44.726;37.764;2022-12-07T03:38:04;18.26;47.10
75705;DHT22;65807;44.726;37.764;2022-12-07T03:41:23;18.22;47.51
75705;DHT22;65807;44.726;37.764;2022-12-07T03:42:25;18.20;47.44
75705;DHT22;65807;44.726;37.764;2022-12-07T03:43:30;18.17;47.57
75705;DHT22;65807;44.726;37.764;2022-12-07T03:44:33;18.17;47.60
75705;DHT22;65807;44.726;37.764;2022-12-07T03:45:39;18.14;47.61
75705;DHT22;65807;44.726;37.764;2022-12-07T03:47:47;18.11;47.88
75705;DHT22;65807;44.726;37.764;2022-12-07T03:48:57;18.09;48.33
75705;DHT22;65807;44.726;37.764;2022-12-07T03:50:02;18.07;48.22
75705;DHT22;65807;44.726;37.764;2022-12-07T03:51:14;18.08;48.18
75705;DHT22;65807;44.726;37.764;2022-12-07T03:53:34;18.06;48.26
75705;DHT22;65807;44.726;37.764;2022-12-07T03:54:59;18.06;48.21
75705;DHT22;65807;44.726;37.764;2022-12-07T03:55:58;18.05;48.23
75705;DHT22;65807;44.726;37.764;2022-12-07T03:57:01;18.05;48.18
75705;DHT22;65807;44.726;37.764;2022-12-07T03:58:04;18.04;48.24
75705;DHT22;65807;44.726;37.764;2022-12-07T03:59:07;18.03;48.24
75705;DHT22;65807;44.726;37.764;2022-12-07T04:00:08;18.03;48.49
75705;DHT22;65807;44.726;37.764;2022-12-07T04:01:14;18.03;48.49
75705;DHT22;65807;44.726;37.764;2022-12-07T04:02:15;18.03;48.41
75705;DHT22;65807;44.726;37.764;2022-12-07T04:03:16;18.03;48.45
75705;DHT22;65807;44.726;37.764;2022-12-07T04:04:18;18.03;48.44
75705;DHT22;65807;44.726;37.764;2022-12-07T04:05:19;18.02;48.43
75705;DHT22;65807;44.726;37.764;2022-12-07T04:06:20;18.00;48.70
75705;DHT22;65807;44.726;37.764;2022-12-07T04:07:22;18.00;48.70
75705;DHT22;65807;44.726;37.764;2022-12-07T04:08:23;17.99;48.88
75705;DHT22;65807;44.726;37.764;2022-12-07T04:09:25;17.99;49.15
75705;DHT22;65807;44.726;37.764;2022-12-07T04:10:27;17.99;49.46
75705;DHT22;65807;44.726;37.764;2022-12-07T04:11:28;18.00;48.90
75705;DHT22;65807;44.726;37.764;2022-12-07T04:12:29;18.00;48.92
75705;DHT22;65807;44.726;37.764;2022-12-07T04:13:31;18.02;48.85
75705;DHT22;65807;44.726;37.764;2022-12-07T04:14:52;18.00;49.71
75705;DHT22;65807;44.726;37.764;2022-12-07T04:15:53;18.03;49.88
75705;DHT22;65807;44.726;37.764;2022-12-07T04:16:56;18.03;50.01
75705;DHT22;65807;44.726;37.764;2022-12-07T04:17:57;18.05;49.60
75705;DHT22;65807;44.726;37.764;2022-12-07T04:18:59;18.08;49.77
75705;DHT22;65807;44.726;37.764;2022-12-07T04:20:00;18.08;49.94
75705;DHT22;65807;44.726;37.764;2022-12-07T04:21:02;18.10;50.10
75705;DHT22;65807;44.726;37.764;2022-12-07T04:22:03;18.12;49.74
75705;DHT22;65807;44.726;37.764;2022-12-07T04:23:05;18.13;50.81
75705;DHT22;65807;44.726;37.764;2022-12-07T04:24:06;18.15;50.47
75705;DHT22;65807;44.726;37.764;2022-12-07T04:25:08;18.18;49.77
75705;DHT22;65807;44.726;37.764;2022-12-07T04:26:09;18.19;49.72
75705;DHT22;65807;44.726;37.764;2022-12-07T04:27:10;18.20;49.76
75705;DHT22;65807;44.726;37.764;2022-12-07T04:28:12;18.23;49.71
75705;DHT22;65807;44.726;37.764;2022-12-07T04:29:13;18.24;49.79
75705;DHT22;65807;44.726;37.764;2022-12-07T04:30:15;18.23;49.69
75705;DHT22;65807;44.726;37.764;2022-12-07T04:31:16;18.26;49.85
75705;DHT22;65807;44.726;37.764;2022-12-07T04:32:18;18.26;49.68
75705;DHT22;65807;44.726;37.764;2022-12-07T04:33:19;18.26;49.74
75705;DHT22;65807;44.726;37.764;2022-12-07T04:34:20;18.27;49.79
75705;DHT22;65807;44.726;37.764;2022-12-07T04:35:22;18.28;49.66
75705;DHT22;65807;44.726;37.764;2022-12-07T04:36:23;18.28;50.04
75705;DHT22;65807;44.726;37.764;2022-12-07T04:37:25;18.30;50.08
75705;DHT22;65807;44.726;37.764;2022-12-07T04:38:26;18.30;49.63
75705;DHT22;65807;44.726;37.764;2022-12-07T04:39:28;18.32;49.58
75705;DHT22;65807;44.726;37.764;2022-12-07T04:40:30;18.33;49.69
75705;DHT22;65807;44.726;37.764;2022-12-07T04:41:32;18.33;49.60
75705;DHT22;65807;44.726;37.764;2022-12-07T04:42:33;18.33;49.96
75705;DHT22;65807;44.726;37.764;2022-12-07T04:43:35;18.33;49.76
75705;DHT22;65807;44.726;37.764;2022-12-07T04:44:36;18.34;49.89
75705;DHT22;65807;44.726;37.764;2022-12-07T04:45:37;18.34;49.50
75705;DHT22;65807;44.726;37.764;2022-12-07T04:46:39;18.36;49.72
75705;DHT22;65807;44.726;37.764;2022-12-07T04:47:40;18.36;49.62
75705;DHT22;65807;44.726;37.764;2022-12-07T04:48:41;18.36;49.75
75705;DHT22;65807;44.726;37.764;2022-12-07T04:49:43;18.36;49.73
75705;DHT22;65807;44.726;37.764;2022-12-07T04:50:44;18.37;49.71
75705;DHT22;65807;44.726;37.764;2022-12-07T04:51:48;18.37;49.78
75705;DHT22;65807;44.726;37.764;2022-12-07T04:52:50;18.38;49.79
75705;DHT22;65807;44.726;37.764;2022-12-07T04:53:51;18.38;49.61
75705;DHT22;65807;44.726;37.764;2022-12-07T04:54:52;18.39;49.85
75705;DHT22;65807;44.726;37.764;2022-12-07T04:55:54;18.39;49.79
75705;DHT22;65807;44.726;37.764;2022-12-07T04:56:55;18.39;49.59
75705;DHT22;65807;44.726;37.764;2022-12-07T04:57:56;18.39;49.56
75705;DHT22;65807;44.726;37.764;2022-12-07T04:58:58;18.40;49.54
75705;DHT22;65807;44.726;37.764;2022-12-07T04:59:59;18.41;49.86
75705;DHT22;65807;44.726;37.764;2022-12-07T05:01:01;18.40;49.72
75705;DHT22;65807;44.726;37.764;2022-12-07T05:02:02;18.41;49.71
75705;DHT22;65807;44.726;37.764;2022-12-07T05:03:03;18.42;49.60
75705;DHT22;65807;44.726;37.764;2022-12-07T05:04:05;18.41;49.70
75705;DHT22;65807;44.726;37.764;2022-12-07T05:05:06;18.42;49.64
75705;DHT22;65807;44.726;37.764;2022-12-07T05:06:08;18.42;49.64
75705;DHT22;65807;44.726;37.764;2022-12-07T05:07:10;18.42;49.62
75705;DHT22;65807;44.726;37.764;2022-12-07T05:08:11;18.42;49.60
75705;DHT22;65807;44.726;37.764;2022-12-07T05:09:13;18.42;49.57
75705;DHT22;65807;44.726;37.764;2022-12-07T05:10:14;18.43;49.56
75705;DHT22;65807;44.726;37.764;2022-12-07T05:11:16;18.43;49.55
75705;DHT22;65807;44.726;37.764;2022-12-07T05:12:36;18.44;49.76
75705;DHT22;65807;44.726;37.764;2022-12-07T05:13:37;18.44;49.52
75705;DHT22;65807;44.726;37.764;2022-12-07T05:14:38;18.44;49.82
75705;DHT22;65807;44.726;37.764;2022-12-07T05:15:40;18.46;49.82
75705;DHT22;65807;44.726;37.764;2022-12-07T05:16:42;18.46;49.73
75705;DHT22;65807;44.726;37.764;2022-12-07T05:17:43;18.46;49.91
75705;DHT22;65807;44.726;37.764;2022-12-07T05:18:45;18.47;50.24
75705;DHT22;65807;44.726;37.764;2022-12-07T05:19:46;18.46;49.92
75705;DHT22;65807;44.726;37.764;2022-12-07T05:20:48;18.48;49.56
75705;DHT22;65807;44.726;37.764;2022-12-07T05:21:49;18.48;50.02
75705;DHT22;65807;44.726;37.764;2022-12-07T05:22:50;18.48;49.92
75705;DHT22;65807;44.726;37.764;2022-12-07T05:23:52;18.49;49.74
75705;DHT22;65807;44.726;37.764;2022-12-07T05:24:54;18.49;49.88
75705;DHT22;65807;44.726;37.764;2022-12-07T05:25:55;18.49;49.76
75705;DHT22;65807;44.726;37.764;2022-12-07T05:26:56;18.50;49.53
75705;DHT22;65807;44.726;37.764;2022-12-07T05:27:58;18.50;49.92
75705;DHT22;65807;44.726;37.764;2022-12-07T05:28:59;18.49;49.47
75705;DHT22;65807;44.726;37.764;2022-12-07T05:30:01;18.50;49.48
75705;DHT22;65807;44.726;37.764;2022-12-07T05:31:02;18.50;49.64
75705;DHT22;65807;44.726;37.764;2022-12-07T05:32:04;18.50;49.51
75705;DHT22;65807;44.726;37.764;2022-12-07T05:33:05;18.51;49.60
75705;DHT22;65807;44.726;37.764;2022-12-07T05:34:06;18.50;49.51
75705;DHT22;65807;44.726;37.764;2022-12-07T05:35:08;18.50;49.61
75705;DHT22;65807;44.726;37.764;2022-12-07T05:36:09;18.50;49.52
75705;DHT22;65807;44.726;37.764;2022-12-07T05:37:11;18.51;49.59
75705;DHT22;65807;44.726;37.764;2022-12-07T05:38:12;18.51;49.66
75705;DHT22;65807;44.726;37.764;2022-12-07T05:39:13;18.50;49.52
75705;DHT22;65807;44.726;37.764;2022-12-07T05:40:15;18.50;49.62
75705;DHT22;65807;44.726;37.764;2022-12-07T05:41:17;18.51;49.97
75705;DHT22;65807;44.726;37.764;2022-12-07T05:42:37;18.52;50.01
75705;DHT22;65807;44.726;37.764;2022-12-07T05:43:38;18.53;49.97
75705;DHT22;65807;44.726;37.764;2022-12-07T05:44:40;18.54;49.84
75705;DHT22;65807;44.726;37.764;2022-12-07T05:45:42;18.54;49.60
75705;DHT22;65807;44.726;37.764;2022-12-07T05:46:43;18.55;50.05
75705;DHT22;65807;44.726;37.764;2022-12-07T05:47:45;18.54;49.74
75705;DHT22;65807;44.726;37.764;2022-12-07T05:48:46;18.54;50.15
75705;DHT22;65807;44.726;37.764;2022-12-07T05:49:48;18.54;49.93
75705;DHT22;65807;44.726;37.764;2022-12-07T05:50:49;18.55;49.53
75705;DHT22;65807;44.726;37.764;2022-12-07T05:51:50;18.55;49.72
75705;DHT22;65807;44.726;37.764;2022-12-07T05:52:52;18.55;49.66
75705;DHT22;65807;44.726;37.764;2022-12-07T05:53:53;18.55;49.35
75705;DHT22;65807;44.726;37.764;2022-12-07T05:54:55;18.55;49.73
75705;DHT22;65807;44.726;37.764;2022-12-07T05:55:56;18.56;49.81
75705;DHT22;65807;44.726;37.764;2022-12-07T05:56:57;18.55;49.37
75705;DHT22;65807;44.726;37.764;2022-12-07T05:57:59;18.55;49.56
75705;DHT22;65807;44.726;37.764;2022-12-07T05:59:18;18.54;49.49
75705;DHT22;65807;44.726;37.764;2022-12-07T06:00:27;18.55;49.87
75705;DHT22;65807;44.726;37.764;2022-12-07T06:01:28;18.55;49.42
75705;DHT22;65807;44.726;37.764;2022-12-07T06:02:30;18.54;49.44
75705;DHT22;65807;44.726;37.764;2022-12-07T06:03:31;18.55;49.44
75705;DHT22;65807;44.726;37.764;2022-12-07T06:04:35;18.55;49.44
75705;DHT22;65807;44.726;37.764;2022-12-07T06:05:36;18.54;49.41
75705;DHT22;65807;44.726;37.764;2022-12-07T06:06:38;18.55;49.44
75705;DHT22;65807;44.726;37.764;2022-12-07T06:07:39;18.54;49.39
75705;DHT22;65807;44.726;37.764;2022-12-07T06:08:41;18.55;49.44
75705;DHT22;65807;44.726;37.764;2022-12-07T06:09:42;18.54;49.41
75705;DHT22;65807;44.726;37.764;2022-12-07T06:10:44;18.54;49.50
75705;DHT22;65807;44.726;37.764;2022-12-07T06:11:45;18.54;49.82
75705;DHT22;65807;44.726;37.764;2022-12-07T06:13:05;18.54;49.68
75705;DHT22;65807;44.726;37.764;2022-12-07T06:14:06;18.54;49.74
75705;DHT22;65807;44.726;37.764;2022-12-07T06:15:08;18.55;49.53
75705;DHT22;65807;44.726;37.764;2022-12-07T06:16:09;18.54;49.51
75705;DHT22;65807;44.726;37.764;2022-12-07T06:17:11;18.55;49.55
75705;DHT22;65807;44.726;37.764;2022-12-07T06:18:13;18.54;49.90
75705;DHT22;65807;44.726;37.764;2022-12-07T06:19:14;18.55;49.46
75705;DHT22;65807;44.726;37.764;2022-12-07T06:20:16;18.56;49.76
75705;DHT22;65807;44.726;37.764;2022-12-07T06:21:17;18.53;49.58
75705;DHT22;65807;44.726;37.764;2022-12-07T06:22:18;18.55;49.56
75705;DHT22;65807;44.726;37.764;2022-12-07T06:23:20;18.55;49.49
75705;DHT22;65807;44.726;37.764;2022-12-07T06:24:21;18.55;49.50
75705;DHT22;65807;44.726;37.764;2022-12-07T06:25:23;18.55;49.75
75705;DHT22;65807;44.726;37.764;2022-12-07T06:26:24;18.55;49.63
75705;DHT22;65807;44.726;37.764;2022-12-07T06:27:26;18.57;49.46
75705;DHT22;65807;44.726;37.764;2022-12-07T06:28:27;18.56;49.51
75705;DHT22;65807;44.726;37.764;2022-12-07T06:29:28;18.56;49.47
75705;DHT22;65807;44.726;37.764;2022-12-07T06:30:30;18.56;49.42
75705;DHT22;65807;44.726;37.764;2022-12-07T06:31:31;18.55;49.53
75705;DHT22;65807;44.726;37.764;2022-12-07T06:32:33;18.56;49.51
75705;DHT22;65807;44.726;37.764;2022-12-07T06:33:34;18.56;49.45
75705;DHT22;65807;44.726;37.764;2022-12-07T06:34:36;18.56;49.49
75705;DHT22;65807;44.726;37.764;2022-12-07T06:35:37;18.55;49.49
75705;DHT22;65807;44.726;37.764;2022-12-07T06:36:39;18.56;49.44
75705;DHT22;65807;44.726;37.764;2022-12-07T06:37:40;18.55;49.64
75705;DHT22;65807;44.726;37.764;2022-12-07T06:38:42;18.56;49.65
75705;DHT22;65807;44.726;37.764;2022-12-07T06:39:43;18.55;49.71
75705;DHT22;65807;44.726;37.764;2022-12-07T06:40:45;18.57;49.60
75705;DHT22;65807;44.726;37.764;2022-12-07T06:41:46;18.55;49.47
75705;DHT22;65807;44.726;37.764;2022-12-07T06:42:48;18.57;49.47
75705;DHT22;65807;44.726;37.764;2022-12-07T06:43:49;18.57;49.73
75705;DHT22;65807;44.726;37.764;2022-12-07T06:44:51;18.56;49.46
75705;DHT22;65807;44.726;37.764;2022-12-07T06:45:52;18.58;49.72
75705;DHT22;65807;44.726;37.764;2022-12-07T06:46:53;18.57;49.50
75705;DHT22;65807;44.726;37.764;2022-12-07T06:47:55;18.58;49.75
75705;DHT22;65807;44.726;37.764;2022-12-07T06:48:56;18.56;49.59
75705;DHT22;65807;44.726;37.764;2022-12-07T06:49:58;18.58;49.44
75705;DHT22;65807;44.726;37.764;2022-12-07T06:50:59;18.57;49.54
75705;DHT22;65807;44.726;37.764;2022-12-07T06:52:00;18.58;49.69
75705;DHT22;65807;44.726;37.764;2022-12-07T06:53:02;18.59;49.97
75705;DHT22;65807;44.726;37.764;2022-12-07T06:54:03;18.59;49.95
75705;DHT22;65807;44.726;37.764;2022-12-07T06:55:05;18.59;49.72
75705;DHT22;65807;44.726;37.764;2022-12-07T06:56:06;18.58;49.65
75705;DHT22;65807;44.726;37.764;2022-12-07T06:57:08;18.58;49.53
75705;DHT22;65807;44.726;37.764;2022-12-07T06:58:09;18.58;49.83
75705;DHT22;65807;44.726;37.764;2022-12-07T06:59:11;18.58;49.65
75705;DHT22;65807;44.726;37.764;2022-12-07T07:00:12;18.61;49.83
75705;DHT22;65807;44.726;37.764;2022-12-07T07:01:15;18.61;49.89
75705;DHT22;65807;44.726;37.764;2022-12-07T07:02:17;18.61;49.69
75705;DHT22;65807;44.726;37.764;2022-12-07T07:03:19;18.61;49.93
75705;DHT22;65807;44.726;37.764;2022-12-07T07:04:20;18.61;49.91
75705;DHT22;65807;44.726;37.764;2022-12-07T07:05:21;18.61;49.90